Time;durP1;ratioP1;P1;durP2;ratioP2;P2;SDS_P1;SDS_P2;PMS_P1;PMS_P2;Temp;Humidity;BMP_temperature;BMP_pressure;BME280_temperature;BME280_humidity;BME280_pressure;Samples;Min_cycle;Max_cycle;Signal;HPM_P1;HPM_P2
2022/10/01 00:01:12;;;;;;;5.50;5.00;;;;;;;;;;5035456;28;20207;-84
2022/10/01 00:03:39;;;;;;;6.03;5.53;;;;;;;;;;5034979;28;20242;-85
2022/10/01 00:06:08;;;;;;;10.87;5.47;;;;;;;;;;5035403;28;20211;-84
2022/10/01 00:08:36;;;;;;;7.00;5.53;;;;;;;;;;5034574;28;20242;-85
2022/10/01 00:11:07;;;;;;;6.07;5.37;;;;;;;;;;5034548;28;20241;-84
2022/10/01 00:13:34;;;;;;;7.13;5.93;;;;;;;;;;5036042;28;20230;-85
2022/10/01 00:16:04;;;;;;;7.27;5.80;;;;;;;;;;5035431;28;20230;-85
2022/10/01 00:18:32;;;;;;;7.67;5.43;;;;;;;;;;5033845;28;20240;-84
2022/10/01 00:20:59;;;;;;;6.80;5.63;;;;;;;;;;5034686;28;20614;-84
2022/10/01 00:23:26;;;;;;;11.07;6.80;;;;;;;;;;5034695;28;20235;-85
2022/10/01 00:25:53;;;;;;;10.63;6.73;;;;;;;;;;5035001;28;20215;-85
2022/10/01 00:28:21;;;;;;;8.13;6.30;;;;;;;;;;5034134;28;20230;-84
2022/10/01 00:30:48;;;;;;;9.10;6.27;;;;;;;;;;5034992;28;20223;-85
2022/10/01 00:33:15;;;;;;;8.53;6.50;;;;;;;;;;5034440;28;20226;-85
2022/10/01 00:35:44;;;;;;;7.00;6.07;;;;;;;;;;5034574;28;20203;-85
2022/10/01 00:38:11;;;;;;;9.00;5.90;;;;;;;;;;5033816;28;20238;-85
2022/10/01 00:40:38;;;;;;;7.67;5.57;;;;;;;;;;5034333;28;20286;-84
2022/10/01 00:43:20;;;;;;;6.93;5.40;;;;;;;;;;5033787;28;20605;-85
2022/10/01 00:45:47;;;;;;;6.30;5.30;;;;;;;;;;5034553;28;20191;-85
2022/10/01 00:48:14;;;;;;;6.37;5.53;;;;;;;;;;5033479;28;20242;-84
2022/10/01 00:50:41;;;;;;;6.87;5.20;;;;;;;;;;5034144;28;20226;-85
2022/10/01 00:53:11;;;;;;;5.50;5.00;;;;;;;;;;5033722;28;20241;-82
2022/10/01 00:55:40;;;;;;;8.67;5.63;;;;;;;;;;5033822;28;20214;-82
2022/10/01 00:58:08;;;;;;;5.83;5.23;;;;;;;;;;5033596;28;20230;-82
2022/10/01 01:00:36;;;;;;;8.57;5.40;;;;;;;;;;5033621;28;20214;-82
2022/10/01 01:03:03;;;;;;;6.10;5.50;;;;;;;;;;5033504;28;20610;-83
2022/10/01 01:05:31;;;;;;;5.80;5.27;;;;;;;;;;5039962;28;20202;-81
2022/10/01 01:08:00;;;;;;;6.80;5.20;;;;;;;;;;5045143;28;20241;-82
2022/10/01 01:10:30;;;;;;;6.67;5.23;;;;;;;;;;5053287;28;20698;-82
2022/10/01 01:13:04;;;;;;;6.87;5.30;;;;;;;;;;5052869;28;20205;-82
2022/10/01 01:15:36;;;;;;;7.03;6.33;;;;;;;;;;5053760;28;20542;-82
2022/10/01 01:18:05;;;;;;;6.20;5.33;;;;;;;;;;5052720;28;20287;-80
2022/10/01 01:20:43;;;;;;;9.73;5.20;;;;;;;;;;5052869;28;20198;-82
2022/10/01 01:23:13;;;;;;;5.50;4.90;;;;;;;;;;5052697;28;20241;-82
2022/10/01 01:25:46;;;;;;;5.77;5.20;;;;;;;;;;5053682;28;20213;-82
2022/10/01 01:28:20;;;;;;;5.70;5.13;;;;;;;;;;5052495;28;20322;-80
2022/10/01 01:30:49;;;;;;;6.33;5.67;;;;;;;;;;5052641;28;20236;-82
2022/10/01 01:33:18;;;;;;;9.97;4.80;;;;;;;;;;5053063;28;20237;-82
2022/10/01 01:35:48;;;;;;;7.03;5.07;;;;;;;;;;5053079;28;20217;-82
2022/10/01 01:38:17;;;;;;;6.67;5.10;;;;;;;;;;5052422;28;20630;-83
2022/10/01 01:40:45;;;;;;;6.83;4.60;;;;;;;;;;5054176;28;20208;-82
2022/10/01 01:43:19;;;;;;;8.83;4.90;;;;;;;;;;5053482;28;20237;-82
2022/10/01 01:45:48;;;;;;;5.17;4.67;;;;;;;;;;5053564;28;20216;-82
2022/10/01 01:48:15;;;;;;;5.40;4.90;;;;;;;;;;5052512;28;20237;-83
2022/10/01 01:50:45;;;;;;;5.37;4.77;;;;;;;;;;5053516;28;20230;-85
2022/10/01 01:53:14;;;;;;;5.77;5.20;;;;;;;;;;5053195;28;20230;-84
2022/10/01 01:55:41;;;;;;;7.67;5.20;;;;;;;;;;5052838;28;20210;-85
2022/10/01 01:58:08;;;;;;;7.50;5.07;;;;;;;;;;5052732;28;20237;-85
2022/10/01 02:00:35;;;;;;;5.87;5.30;;;;;;;;;;5063706;28;20206;-84
2022/10/01 02:03:05;;;;;;;7.03;5.40;;;;;;;;;;5052513;28;20295;-83
2022/10/01 02:05:38;;;;;;;6.60;5.27;;;;;;;;;;5053212;28;20264;-83
2022/10/01 02:08:27;;;;;;;6.03;5.17;;;;;;;;;;5052081;28;20233;-85
2022/10/01 02:11:01;;;;;;;6.83;5.07;;;;;;;;;;5053149;28;20678;-85
2022/10/01 02:13:33;;;;;;;5.50;5.00;;;;;;;;;;5052462;28;20236;-83
2022/10/01 02:16:06;;;;;;;7.33;5.30;;;;;;;;;;5052944;28;20210;-84
2022/10/01 02:18:39;;;;;;;7.50;5.67;;;;;;;;;;5052422;28;20717;-85
2022/10/01 02:21:11;;;;;;;7.13;4.97;;;;;;;;;;5052810;28;20205;-85
2022/10/01 02:23:41;;;;;;;5.20;4.70;;;;;;;;;;5051914;28;20279;-85
2022/10/01 02:26:11;;;;;;;6.53;4.20;;;;;;;;;;5052825;28;20205;-84
2022/10/01 02:28:39;;;;;;;8.17;4.63;;;;;;;;;;5051916;28;20230;-85
2022/10/01 02:31:07;;;;;;;5.80;4.03;;;;;;;;;;5052843;28;20229;-85
2022/10/01 02:33:36;;;;;;;4.77;4.30;;;;;;;;;;5052585;28;20339;-85
2022/10/01 02:36:04;;;;;;;3.77;3.43;;;;;;;;;;5057122;28;20662;-84
2022/10/01 02:38:32;;;;;;;3.83;3.53;;;;;;;;;;5047887;28;20717;-84
2022/10/01 02:41:01;;;;;;;6.33;3.50;;;;;;;;;;5036903;28;20203;-85
2022/10/01 02:43:31;;;;;;;3.67;3.20;;;;;;;;;;5037724;28;20245;-84
2022/10/01 02:46:02;;;;;;;4.47;3.13;;;;;;;;;;5057022;28;20202;-84
2022/10/01 02:48:30;;;;;;;3.17;2.83;;;;;;;;;;5058360;28;20233;-83
2022/10/01 02:51:15;;;;;;;3.10;2.47;;;;;;;;;;5070121;28;20236;-85
2022/10/01 02:53:44;;;;;;;2.80;2.60;;;;;;;;;;5057912;28;20240;-86
2022/10/01 02:56:13;;;;;;;2.70;2.50;;;;;;;;;;5058048;28;20566;-85
2022/10/01 03:01:08;;;;;;;4.47;3.13;;;;;;;;;;5026822;28;20246;-86
2022/10/01 03:03:36;;;;;;;2.90;2.70;;;;;;;;;;5016612;28;20232;-86
2022/10/01 03:06:04;;;;;;;3.83;2.83;;;;;;;;;;5016651;28;20211;-85
2022/10/01 03:08:31;;;;;;;2.80;2.60;;;;;;;;;;5016277;28;20231;-86
2022/10/01 03:10:58;;;;;;;2.70;2.50;;;;;;;;;;5016454;28;20235;-86
2022/10/01 03:13:25;;;;;;;2.63;2.43;;;;;;;;;;5034983;28;20241;-85
2022/10/01 03:15:53;;;;;;;1.97;1.87;;;;;;;;;;5056590;28;20271;-87
2022/10/01 03:18:20;;;;;;;3.23;2.40;;;;;;;;;;5056127;28;20225;-86
2022/10/01 03:20:48;;;;;;;2.80;2.60;;;;;;;;;;5056292;28;20229;-86
2022/10/01 03:23:16;;;;;;;2.67;2.47;;;;;;;;;;5055622;28;20607;-86
2022/10/01 03:25:43;;;;;;;2.60;2.40;;;;;;;;;;5056666;28;20233;-86
2022/10/01 03:28:11;;;;;;;4.67;2.60;;;;;;;;;;5036737;28;20234;-86
2022/10/01 03:30:38;;;;;;;4.17;2.63;;;;;;;;;;5036988;28;20230;-85
2022/10/01 03:33:05;;;;;;;3.00;2.70;;;;;;;;;;5036105;28;20231;-87
2022/10/01 03:35:32;;;;;;;2.33;1.97;;;;;;;;;;5050941;28;20202;-86
2022/10/01 03:38:01;;;;;;;5.37;2.77;;;;;;;;;;5055754;28;20233;-88
2022/10/01 03:40:32;;;;;;;3.70;3.40;;;;;;;;;;5056472;28;20253;-88
2022/10/01 03:42:59;;;;;;;3.83;2.60;;;;;;;;;;5055915;28;20240;-85
2022/10/01 03:45:26;;;;;;;2.57;2.37;;;;;;;;;;5055290;28;20212;-86
2022/10/01 03:47:53;;;;;;;2.83;2.53;;;;;;;;;;5055757;28;20212;-86
2022/10/01 03:50:22;;;;;;;1.97;1.87;;;;;;;;;;5055350;28;20234;-86
2022/10/01 03:52:50;;;;;;;2.30;2.20;;;;;;;;;;5044359;28;20199;-86
2022/10/01 03:55:18;;;;;;;3.27;2.37;;;;;;;;;;5035812;28;20306;-85
2022/10/01 03:57:46;;;;;;;2.30;2.20;;;;;;;;;;5035453;28;20209;-86
2022/10/01 04:00:13;;;;;;;3.50;2.10;;;;;;;;;;5035677;28;20230;-87
2022/10/01 04:02:40;;;;;;;3.33;2.90;;;;;;;;;;5035229;28;20209;-85
2022/10/01 04:05:08;;;;;;;2.47;2.27;;;;;;;;;;5035895;28;20211;-85
2022/10/01 04:07:35;;;;;;;2.90;2.40;;;;;;;;;;5035403;28;20214;-86
2022/10/01 04:10:02;;;;;;;2.43;2.23;;;;;;;;;;5035547;28;20237;-87
2022/10/01 04:12:29;;;;;;;2.20;2.10;;;;;;;;;;5035915;28;20270;-86
2022/10/01 04:14:57;;;;;;;2.33;2.23;;;;;;;;;;5035000;28;20230;-88
2022/10/01 04:17:25;;;;;;;2.20;2.10;;;;;;;;;;5035587;28;20221;-85
2022/10/01 04:19:52;;;;;;;2.37;2.27;;;;;;;;;;5038035;28;20253;-85
2022/10/01 04:22:19;;;;;;;2.27;2.17;;;;;;;;;;5055287;28;20201;-85
2022/10/01 04:24:46;;;;;;;2.63;2.43;;;;;;;;;;5055243;28;20234;-86
2022/10/01 04:27:14;;;;;;;3.03;2.20;;;;;;;;;;5055626;28;20217;-86
2022/10/01 04:29:41;;;;;;;2.70;2.50;;;;;;;;;;5054426;28;20310;-84
2022/10/01 04:32:09;;;;;;;2.37;2.17;;;;;;;;;;5055242;28;20225;-85
2022/10/01 04:37:17;;;;;;;2.30;2.20;;;;;;;;;;5056162;28;20209;-85
2022/10/01 04:39:45;;;;;;;2.80;2.60;;;;;;;;;;5054456;28;20275;-85
2022/10/01 04:42:12;;;;;;;3.50;2.70;;;;;;;;;;5055017;28;20206;-85
2022/10/01 04:44:39;;;;;;;4.27;2.60;;;;;;;;;;5054545;28;20237;-87
2022/10/01 04:47:07;;;;;;;2.20;2.10;;;;;;;;;;5054855;28;20213;-85
2022/10/01 04:49:36;;;;;;;3.10;2.80;;;;;;;;;;5054325;28;20246;-85
2022/10/01 04:52:04;;;;;;;2.13;2.03;;;;;;;;;;5054181;28;20230;-84
2022/10/01 04:54:31;;;;;;;4.03;2.57;;;;;;;;;;5054103;28;20241;-86
2022/10/01 04:56:58;;;;;;;3.10;2.80;;;;;;;;;;5053436;28;20210;-87
2022/10/01 04:59:25;;;;;;;3.13;2.80;;;;;;;;;;5053398;28;20246;-85
2022/10/01 05:01:53;;;;;;;3.40;2.63;;;;;;;;;;5053969;28;20210;-85
2022/10/01 05:04:20;;;;;;;2.63;2.30;;;;;;;;;;5053652;28;20233;-84
2022/10/01 05:06:48;;;;;;;5.20;2.60;;;;;;;;;;5054175;28;20202;-86
2022/10/01 05:09:15;;;;;;;3.80;2.60;;;;;;;;;;5053197;28;20596;-84
2022/10/01 05:11:42;;;;;;;2.80;2.53;;;;;;;;;;5043526;28;20233;-86
2022/10/01 05:14:09;;;;;;;3.47;2.70;;;;;;;;;;5033317;28;20603;-85
2022/10/01 05:16:36;;;;;;;3.30;3.00;;;;;;;;;;5034224;28;20294;-86
2022/10/01 05:19:03;;;;;;;4.80;4.30;;;;;;;;;;5033542;28;20245;-85
2022/10/01 05:21:31;;;;;;;3.10;2.90;;;;;;;;;;5033840;28;20203;-88
2022/10/01 05:23:59;;;;;;;2.73;2.53;;;;;;;;;;5033274;28;20234;-85
2022/10/01 05:26:26;;;;;;;2.70;2.50;;;;;;;;;;5046924;28;20571;-85
2022/10/01 05:28:53;;;;;;;4.00;2.80;;;;;;;;;;5052878;28;20272;-86
2022/10/01 05:31:20;;;;;;;3.50;2.70;;;;;;;;;;5054595;28;20230;-87
2022/10/01 05:33:48;;;;;;;3.57;2.77;;;;;;;;;;5054215;28;20245;-88
2022/10/01 05:36:15;;;;;;;4.47;2.50;;;;;;;;;;5054884;28;20641;-86
2022/10/01 05:38:42;;;;;;;6.70;2.63;;;;;;;;;;5053083;28;20249;-86
2022/10/01 05:41:10;;;;;;;3.27;2.80;;;;;;;;;;5053907;28;20197;-87
2022/10/01 05:43:37;;;;;;;3.03;2.83;;;;;;;;;;5053080;28;20238;-85
2022/10/01 05:46:05;;;;;;;3.53;2.60;;;;;;;;;;5013588;28;20206;-86
2022/10/01 05:48:35;;;;;;;3.80;2.77;;;;;;;;;;5016779;28;20258;-86
2022/10/01 05:51:05;;;;;;;3.00;2.80;;;;;;;;;;5030619;28;20230;-87
2022/10/01 05:53:33;;;;;;;2.50;2.30;;;;;;;;;;5035269;28;20612;-85
2022/10/01 05:56:01;;;;;;;3.40;2.97;;;;;;;;;;5033659;28;20659;-88
2022/10/01 05:58:30;;;;;;;2.70;2.50;;;;;;;;;;5044073;28;20655;-85
2022/10/01 06:00:57;;;;;;;3.00;2.80;;;;;;;;;;5053631;28;20238;-85
2022/10/01 06:03:25;;;;;;;3.03;2.70;;;;;;;;;;5053334;28;20686;-87
2022/10/01 06:05:53;;;;;;;2.30;2.20;;;;;;;;;;5053785;28;20772;-83
2022/10/01 06:08:20;;;;;;;3.33;2.43;;;;;;;;;;5052632;28;20726;-82
2022/10/01 06:10:47;;;;;;;2.57;2.33;;;;;;;;;;5053050;28;20226;-83
2022/10/01 06:13:16;;;;;;;3.57;2.83;;;;;;;;;;5054780;28;20240;-83
2022/10/01 06:15:45;;;;;;;2.60;2.40;;;;;;;;;;5056397;28;20206;-84
2022/10/01 06:18:13;;;;;;;4.40;2.80;;;;;;;;;;5063878;28;20233;-86
2022/10/01 06:20:40;;;;;;;2.80;2.60;;;;;;;;;;5053234;28;20240;-86
2022/10/01 06:23:10;;;;;;;3.33;2.27;;;;;;;;;;5053696;28;20320;-84
2022/10/01 06:25:38;;;;;;;4.17;2.57;;;;;;;;;;5054758;28;20244;-84
2022/10/01 06:28:06;;;;;;;3.43;2.80;;;;;;;;;;5038821;28;20288;-83
2022/10/01 06:30:35;;;;;;;2.67;2.47;;;;;;;;;;5034948;28;20227;-84
2022/10/01 06:33:05;;;;;;;3.93;3.20;;;;;;;;;;5033422;28;20590;-83
2022/10/01 06:35:32;;;;;;;4.27;2.40;;;;;;;;;;5034571;28;20203;-83
2022/10/01 06:38:00;;;;;;;2.73;2.53;;;;;;;;;;5034442;28;20233;-82
2022/10/01 06:40:28;;;;;;;3.90;3.37;;;;;;;;;;5036129;28;20219;-84
2022/10/01 06:42:57;;;;;;;4.73;3.20;;;;;;;;;;5036170;28;20242;-87
2022/10/01 06:45:24;;;;;;;4.07;2.73;;;;;;;;;;5035369;28;20290;-83
2022/10/01 06:47:54;;;;;;;3.33;3.03;;;;;;;;;;5037456;28;20206;-82
2022/10/01 06:50:23;;;;;;;3.43;3.10;;;;;;;;;;5036845;28;20226;-83
2022/10/01 06:52:49;;;;;;;19.73;2.90;;;;;;;;;;5038497;28;20215;-80
2022/10/01 06:55:16;;;;;;;2.57;2.37;;;;;;;;;;5038399;28;20202;-81
2022/10/01 06:57:43;;;;;;;4.57;2.93;;;;;;;;;;5035872;28;20202;-81
2022/10/01 07:00:11;;;;;;;2.73;2.53;;;;;;;;;;5033295;28;20234;-81
2022/10/01 07:02:39;;;;;;;3.90;2.90;;;;;;;;;;5035863;28;20206;-79
2022/10/01 07:05:07;;;;;;;3.17;2.93;;;;;;;;;;5036039;28;20674;-80
2022/10/01 07:07:36;;;;;;;3.50;3.00;;;;;;;;;;5035952;28;20221;-81
2022/10/01 07:10:05;;;;;;;3.80;2.80;;;;;;;;;;5038894;28;20245;-81
2022/10/01 07:12:32;;;;;;;2.63;2.50;;;;;;;;;;5036894;28;20219;-81
2022/10/01 07:14:59;;;;;;;3.30;3.00;;;;;;;;;;5038502;28;20231;-80
2022/10/01 07:17:26;;;;;;;3.57;3.27;;;;;;;;;;5039900;28;20215;-82
2022/10/01 07:19:53;;;;;;;3.00;2.70;;;;;;;;;;5038800;28;20610;-80
2022/10/01 07:22:22;;;;;;;2.70;2.60;;;;;;;;;;5042629;28;20194;-82
2022/10/01 07:24:51;;;;;;;2.77;2.57;;;;;;;;;;5039619;28;20231;-80
2022/10/01 07:27:19;;;;;;;3.20;3.00;;;;;;;;;;5041469;28;20207;-79
2022/10/01 07:29:46;;;;;;;3.13;2.83;;;;;;;;;;5041076;28;20241;-79
2022/10/01 07:32:14;;;;;;;3.27;2.87;;;;;;;;;;5041709;28;20589;-80
2022/10/01 07:34:41;;;;;;;2.97;2.70;;;;;;;;;;5040239;28;20314;-82
2022/10/01 07:37:09;;;;;;;3.33;3.03;;;;;;;;;;5041378;28;20203;-80
2022/10/01 07:39:36;;;;;;;3.87;2.37;;;;;;;;;;5038830;28;20314;-80
2022/10/01 07:42:06;;;;;;;2.63;2.43;;;;;;;;;;5039904;28;20226;-81
2022/10/01 07:44:33;;;;;;;3.73;2.57;;;;;;;;;;5039237;28;20231;-83
2022/10/01 07:47:00;;;;;;;3.43;2.53;;;;;;;;;;5039128;28;20198;-81
2022/10/01 07:49:27;;;;;;;3.80;2.70;;;;;;;;;;5037685;28;20242;-84
2022/10/01 07:51:55;;;;;;;4.33;3.93;;;;;;;;;;5038447;28;20218;-82
2022/10/01 07:54:22;;;;;;;3.00;2.80;;;;;;;;;;5032732;28;20725;-81
2022/10/01 07:56:54;;;;;;;2.00;1.90;;;;;;;;;;5034448;28;20193;-80
2022/10/01 07:59:23;;;;;;;3.03;2.77;;;;;;;;;;5036580;28;20230;-82
2022/10/01 08:01:51;;;;;;;3.80;3.20;;;;;;;;;;5037781;28;20199;-81
2022/10/01 08:07:03;;;;;;;3.23;2.90;;;;;;;;;;5018734;28;20273;-82
2022/10/01 08:09:30;;;;;;;3.00;2.10;;;;;;;;;;5018349;28;20239;-81
2022/10/01 08:11:57;;;;;;;2.90;2.70;;;;;;;;;;5032228;28;20226;-83
2022/10/01 08:14:27;;;;;;;2.70;2.30;;;;;;;;;;5038324;28;20237;-83
2022/10/01 08:16:55;;;;;;;2.13;2.03;;;;;;;;;;5038333;28;20259;-81
2022/10/01 08:19:23;;;;;;;1.93;1.83;;;;;;;;;;5037768;28;20284;-83
2022/10/01 08:21:50;;;;;;;2.10;1.90;;;;;;;;;;5039293;28;20210;-82
2022/10/01 08:24:18;;;;;;;2.10;2.00;;;;;;;;;;5038903;28;20231;-81
2022/10/01 08:26:45;;;;;;;2.40;2.20;;;;;;;;;;5033314;28;20207;-82
2022/10/01 08:29:12;;;;;;;2.03;1.93;;;;;;;;;;5038266;28;20234;-84
2022/10/01 08:31:41;;;;;;;2.20;2.00;;;;;;;;;;5039551;28;20237;-84
2022/10/01 08:34:08;;;;;;;2.70;2.50;;;;;;;;;;5039483;28;20227;-82
2022/10/01 08:36:36;;;;;;;2.20;2.10;;;;;;;;;;5040634;28;20610;-83
2022/10/01 08:39:03;;;;;;;2.10;2.00;;;;;;;;;;5035455;28;20230;-82
2022/10/01 08:41:34;;;;;;;2.53;2.33;;;;;;;;;;5037004;28;20846;-81
2022/10/01 08:44:03;;;;;;;1.93;1.83;;;;;;;;;;5037078;28;20230;-82
2022/10/01 08:46:33;;;;;;;2.00;1.90;;;;;;;;;;5037504;28;20206;-82
2022/10/01 08:49:04;;;;;;;2.17;1.97;;;;;;;;;;5036713;28;20325;-81
2022/10/01 08:51:33;;;;;;;2.33;2.13;;;;;;;;;;5038814;28;20209;-83
2022/10/01 08:54:04;;;;;;;1.70;1.60;;;;;;;;;;5036641;28;20721;-82
2022/10/01 08:56:32;;;;;;;4.20;2.13;;;;;;;;;;5037147;28;20187;-81
2022/10/01 08:59:00;;;;;;;1.50;1.50;;;;;;;;;;5037841;28;20234;-82
2022/10/01 09:01:28;;;;;;;2.53;1.67;;;;;;;;;;5019428;28;20188;-82
2022/10/01 09:03:56;;;;;;;2.10;2.00;;;;;;;;;;5042282;28;20594;-82
2022/10/01 09:06:25;;;;;;;1.70;1.60;;;;;;;;;;5027234;28;20226;-82
2022/10/01 09:08:58;;;;;;;1.57;1.47;;;;;;;;;;5028793;28;20241;-86
2022/10/01 09:11:31;;;;;;;1.80;1.70;;;;;;;;;;5034862;28;20205;-86
2022/10/01 09:14:17;;;;;;;1.70;1.60;;;;;;;;;;5034582;28;20318;-84
2022/10/01 09:16:46;;;;;;;1.87;1.70;;;;;;;;;;5034083;28;20281;-84
2022/10/01 09:19:21;;;;;;;1.60;1.50;;;;;;;;;;5035003;28;20231;-84
2022/10/01 09:21:56;;;;;;;1.47;1.47;;;;;;;;;;5044377;28;20187;-83
2022/10/01 09:24:27;;;;;;;1.80;1.70;;;;;;;;;;5037008;28;20656;-85
2022/10/01 09:26:54;;;;;;;1.37;1.27;;;;;;;;;;5035065;28;20198;-85
2022/10/01 09:29:24;;;;;;;1.60;1.50;;;;;;;;;;5033860;28;20230;-86
2022/10/01 09:31:53;;;;;;;1.93;1.83;;;;;;;;;;5034722;28;20237;-83
2022/10/01 09:34:25;;;;;;;1.53;1.43;;;;;;;;;;5033751;28;20235;-85
2022/10/01 09:37:02;;;;;;;1.90;1.80;;;;;;;;;;5014928;28;20659;-83
2022/10/01 09:39:32;;;;;;;1.27;1.27;;;;;;;;;;5013889;28;20619;-83
2022/10/01 09:41:59;;;;;;;1.43;1.43;;;;;;;;;;5030002;28;20198;-86
2022/10/01 09:44:27;;;;;;;1.70;1.60;;;;;;;;;;5033836;28;20238;-84
2022/10/01 09:49:39;;;;;;;1.50;1.50;;;;;;;;;;5033885;28;20234;-85
2022/10/01 09:52:11;;;;;;;1.70;1.60;;;;;;;;;;5035614;28;20214;-86
2022/10/01 09:54:42;;;;;;;1.70;1.60;;;;;;;;;;5022376;28;20245;-84
2022/10/01 09:57:10;;;;;;;2.10;2.00;;;;;;;;;;5034227;28;20211;-86
2022/10/01 09:59:41;;;;;;;1.67;1.60;;;;;;;;;;5033828;28;20603;-83
2022/10/01 10:02:15;;;;;;;1.80;1.70;;;;;;;;;;5034216;28;20198;-84
2022/10/01 10:04:42;;;;;;;2.23;2.13;;;;;;;;;;5033486;28;20230;-82
2022/10/01 10:07:17;;;;;;;1.90;1.80;;;;;;;;;;5033750;28;20547;-85
2022/10/01 10:09:45;;;;;;;2.43;2.23;;;;;;;;;;5017663;28;20234;-81
2022/10/01 10:12:25;;;;;;;2.13;2.00;;;;;;;;;;5036775;28;20233;-83
2022/10/01 10:14:55;;;;;;;2.47;2.27;;;;;;;;;;5037644;28;20230;-83
2022/10/01 10:17:23;;;;;;;2.87;2.50;;;;;;;;;;5035917;28;20183;-80
2022/10/01 10:19:51;;;;;;;2.40;2.30;;;;;;;;;;5036795;28;20292;-83
2022/10/01 10:22:23;;;;;;;2.10;2.00;;;;;;;;;;5032500;28;20194;-81
2022/10/01 10:24:52;;;;;;;1.90;1.80;;;;;;;;;;5034190;28;20305;-83
2022/10/01 10:27:21;;;;;;;1.93;1.83;;;;;;;;;;5033334;28;20256;-83
2022/10/01 10:29:48;;;;;;;2.73;2.03;;;;;;;;;;5032704;28;20299;-84
2022/10/01 10:32:18;;;;;;;2.03;1.93;;;;;;;;;;5051585;28;20221;-82
2022/10/01 10:34:46;;;;;;;2.17;1.90;;;;;;;;;;5038684;28;20235;-84
2022/10/01 10:37:15;;;;;;;2.43;2.23;;;;;;;;;;5033449;28;20202;-85
2022/10/01 10:39:47;;;;;;;1.90;1.80;;;;;;;;;;5032958;28;20706;-83
2022/10/01 10:42:15;;;;;;;2.20;2.10;;;;;;;;;;5018979;28;20209;-81
2022/10/01 10:44:43;;;;;;;1.70;1.60;;;;;;;;;;5013387;28;20242;-83
2022/10/01 10:47:12;;;;;;;2.20;2.10;;;;;;;;;;5013562;28;20217;-82
2022/10/01 10:49:43;;;;;;;2.17;2.07;;;;;;;;;;5024295;28;20241;-82
2022/10/01 10:52:19;;;;;;;2.07;1.87;;;;;;;;;;5033319;28;20210;-85
2022/10/01 10:54:49;;;;;;;1.83;1.73;;;;;;;;;;5033930;28;20288;-83
2022/10/01 10:57:19;;;;;;;2.17;2.03;;;;;;;;;;5036953;28;20677;-84
2022/10/01 10:59:55;;;;;;;2.17;1.97;;;;;;;;;;5036366;28;20788;-84
2022/10/01 11:02:24;;;;;;;2.03;1.83;;;;;;;;;;5037249;28;20681;-85
2022/10/01 11:04:51;;;;;;;2.53;1.97;;;;;;;;;;5038084;28;20230;-84
2022/10/01 11:07:20;;;;;;;4.53;1.80;;;;;;;;;;5037672;28;20206;-84
2022/10/01 11:10:01;;;;;;;1.70;1.60;;;;;;;;;;5036423;28;20234;-83
2022/10/01 11:12:39;;;;;;;2.77;1.87;;;;;;;;;;5036958;28;20207;-85
2022/10/01 11:15:13;;;;;;;1.77;1.67;;;;;;;;;;5036200;28;20225;-84
2022/10/01 11:17:49;;;;;;;2.30;2.20;;;;;;;;;;5036022;28;20240;-85
2022/10/01 11:20:23;;;;;;;2.30;2.20;;;;;;;;;;5037711;28;20233;-83
2022/10/01 11:22:56;;;;;;;2.27;2.07;;;;;;;;;;5035780;28;20203;-83
2022/10/01 11:25:42;;;;;;;1.83;1.73;;;;;;;;;;5035744;28;20211;-83
2022/10/01 11:28:16;;;;;;;1.93;1.83;;;;;;;;;;5035127;28;20317;-85
2022/10/01 11:30:48;;;;;;;2.10;1.83;;;;;;;;;;5035651;28;20227;-83
2022/10/01 11:33:23;;;;;;;1.80;1.70;;;;;;;;;;5029313;28;20269;-83
2022/10/01 11:35:55;;;;;;;2.00;1.90;;;;;;;;;;5026475;28;20204;-83
2022/10/01 11:38:36;;;;;;;1.63;1.53;;;;;;;;;;5023747;28;20226;-84
2022/10/01 11:41:10;;;;;;;2.00;1.90;;;;;;;;;;5035035;28;20245;-83
2022/10/01 11:43:39;;;;;;;1.97;1.87;;;;;;;;;;5034809;28;20624;-84
2022/10/01 11:46:08;;;;;;;1.90;1.80;;;;;;;;;;5035861;28;20561;-84
2022/10/01 11:48:38;;;;;;;1.53;1.43;;;;;;;;;;5034622;28;20245;-83
2022/10/01 11:51:11;;;;;;;1.80;1.70;;;;;;;;;;5037768;28;20696;-83
2022/10/01 11:53:42;;;;;;;1.90;1.80;;;;;;;;;;5042891;28;20233;-82
2022/10/01 11:59:02;;;;;;;3.30;1.73;;;;;;;;;;5042816;28;20233;-83
2022/10/01 12:01:32;;;;;;;1.70;1.60;;;;;;;;;;5040888;28;20210;-84
2022/10/01 12:04:05;;;;;;;1.60;1.50;;;;;;;;;;5040023;28;20253;-83
2022/10/01 12:06:34;;;;;;;1.70;1.60;;;;;;;;;;5038477;28;20210;-83
2022/10/01 12:09:05;;;;;;;2.57;2.13;;;;;;;;;;5041861;28;20238;-83
2022/10/01 12:11:37;;;;;;;1.30;1.30;;;;;;;;;;5038119;28;20196;-83
2022/10/01 12:14:09;;;;;;;2.33;1.50;;;;;;;;;;5089138;22;20222;-81
2022/10/01 12:16:41;;;;;;;1.60;1.50;;;;;;;;;;5051369;28;20209;-81
2022/10/01 12:19:12;;;;;;;1.90;1.50;;;;;;;;;;5073399;28;20255;-81
2022/10/01 12:21:42;;;;;;;1.70;1.60;;;;;;;;;;5061161;28;20202;-81
2022/10/01 12:24:13;;;;;;;1.87;1.70;;;;;;;;;;5057710;28;20234;-81
2022/10/01 12:26:45;;;;;;;3.93;1.60;;;;;;;;;;5053160;28;20674;-82
2022/10/01 12:29:15;;;;;;;1.70;1.60;;;;;;;;;;5052288;28;20237;-81
2022/10/01 12:31:46;;;;;;;1.70;1.60;;;;;;;;;;5052714;28;20214;-81
2022/10/01 12:34:18;;;;;;;1.30;1.23;;;;;;;;;;5052214;28;20237;-82
2022/10/01 12:36:48;;;;;;;2.10;1.90;;;;;;;;;;5052637;28;20210;-81
2022/10/01 12:39:20;;;;;;;1.60;1.50;;;;;;;;;;5051967;28;20245;-82
2022/10/01 12:41:56;;;;;;;2.53;1.80;;;;;;;;;;5052735;28;20202;-83
2022/10/01 12:44:38;;;;;;;2.10;1.90;;;;;;;;;;5059657;28;20253;-81
2022/10/01 12:47:11;;;;;;;1.80;1.70;;;;;;;;;;5050454;28;20206;-81
2022/10/01 12:49:41;;;;;;;2.37;1.53;;;;;;;;;;5051732;28;20234;-84
2022/10/01 12:52:12;;;;;;;1.70;1.57;;;;;;;;;;5052570;28;20590;-82
2022/10/01 12:54:50;;;;;;;1.70;1.60;;;;;;;;;;5051793;28;20233;-82
2022/10/01 12:57:24;;;;;;;2.40;1.80;;;;;;;;;;5052615;28;20197;-81
2022/10/01 12:59:58;;;;;;;2.20;2.00;;;;;;;;;;5061791;28;20708;-81
2022/10/01 13:02:33;;;;;;;3.27;1.67;;;;;;;;;;5063196;28;20647;-81
2022/10/01 13:05:24;;;;;;;1.50;1.40;;;;;;;;;;5055579;28;20218;-81
2022/10/01 13:07:59;;;;;;;1.67;1.57;;;;;;;;;;5054146;28;20190;-80
2022/10/01 13:10:35;;;;;;;1.90;1.80;;;;;;;;;;5052584;28;20776;-83
2022/10/01 13:13:06;;;;;;;1.83;1.70;;;;;;;;;;5051876;28;20236;-92
2022/10/01 13:15:36;;;;;;;1.60;1.50;;;;;;;;;;5053006;28;20230;-87
2022/10/01 13:18:10;;;;;;;1.47;1.37;;;;;;;;;;5051333;28;20233;-86
2022/10/01 13:20:41;;;;;;;1.70;1.47;;;;;;;;;;5052468;28;20236;-86
2022/10/01 13:23:10;;;;;;;1.13;1.10;;;;;;;;;;5051894;28;20226;-89
2022/10/01 13:25:43;;;;;;;2.03;1.33;;;;;;;;;;5052149;28;20662;-88
2022/10/01 13:28:16;;;;;;;1.43;1.30;;;;;;;;;;5058424;28;20235;-89
2022/10/01 13:30:51;;;;;;;1.60;1.30;;;;;;;;;;5072872;28;20728;-89
2022/10/01 13:33:23;;;;;;;1.80;1.50;;;;;;;;;;5073320;28;20239;-91
2022/10/01 13:35:54;;;;;;;1.60;1.30;;;;;;;;;;5073569;28;20211;-91
2022/10/01 13:38:27;;;;;;;1.53;1.37;;;;;;;;;;5072988;28;20232;-89
2022/10/01 13:40:57;;;;;;;2.57;1.33;;;;;;;;;;5067499;28;20225;-87
2022/10/01 13:43:26;;;;;;;1.90;1.33;;;;;;;;;;5045192;28;20222;-85
2022/10/01 13:45:54;;;;;;;1.30;1.30;;;;;;;;;;5052069;28;20210;-86
2022/10/01 13:48:22;;;;;;;1.50;1.40;;;;;;;;;;5052643;28;20229;-86
2022/10/01 13:50:56;;;;;;;1.90;1.20;;;;;;;;;;5052212;28;20226;-84
2022/10/01 13:53:25;;;;;;;1.73;1.60;;;;;;;;;;5051468;28;20240;-84
2022/10/01 13:55:53;;;;;;;2.37;1.90;;;;;;;;;;5052438;28;20206;-86
2022/10/01 13:58:23;;;;;;;1.80;1.70;;;;;;;;;;5051248;28;20229;-86
2022/10/01 14:00:53;;;;;;;1.70;1.60;;;;;;;;;;5051678;28;20226;-87
2022/10/01 14:03:28;;;;;;;1.53;1.43;;;;;;;;;;5051141;28;20230;-85
2022/10/01 14:05:57;;;;;;;1.93;1.30;;;;;;;;;;5051536;28;20186;-84
2022/10/01 14:08:28;;;;;;;1.63;1.53;;;;;;;;;;5050788;28;20229;-83
2022/10/01 14:16:31;;;;;;;1.33;1.23;;;;;;;;;;5051630;28;20227;-86
2022/10/01 14:18:59;;;;;;;1.83;1.70;;;;;;;;;;5051087;28;20234;-87
2022/10/01 14:21:33;;;;;;;1.37;1.27;;;;;;;;;;5051400;28;20213;-86
2022/10/01 14:24:05;;;;;;;1.60;1.50;;;;;;;;;;5051041;28;20315;-87
2022/10/01 14:26:36;;;;;;;1.80;1.60;;;;;;;;;;5051840;28;20194;-82
2022/10/01 14:29:09;;;;;;;2.93;1.87;;;;;;;;;;5051850;28;20246;-81
2022/10/01 14:31:43;;;;;;;3.20;2.10;;;;;;;;;;5055024;28;20212;-81
2022/10/01 14:34:24;;;;;;;2.17;1.60;;;;;;;;;;5038576;28;20269;-82
2022/10/01 14:36:52;;;;;;;1.77;1.67;;;;;;;;;;5049008;28;20213;-82
2022/10/01 14:39:23;;;;;;;2.70;1.20;;;;;;;;;;5052724;28;20237;-82
2022/10/01 14:41:52;;;;;;;1.30;1.23;;;;;;;;;;5046507;28;20658;-81
2022/10/01 14:44:20;;;;;;;1.17;1.10;;;;;;;;;;5054376;28;20226;-83
2022/10/01 14:46:49;;;;;;;2.60;1.40;;;;;;;;;;5054861;28;20248;-81
2022/10/01 14:49:20;;;;;;;2.70;1.57;;;;;;;;;;5053879;28;20234;-83
2022/10/01 14:51:52;;;;;;;4.83;1.87;;;;;;;;;;5054761;28;20256;-82
2022/10/01 14:54:19;;;;;;;1.57;1.47;;;;;;;;;;5055854;28;20641;-83
2022/10/01 14:56:47;;;;;;;4.47;1.43;;;;;;;;;;5074935;28;20213;-82
2022/10/01 14:59:18;;;;;;;3.20;1.40;;;;;;;;;;5071131;28;20240;-82
2022/10/01 15:01:56;;;;;;;2.03;1.40;;;;;;;;;;5054834;28;20216;-85
2022/10/01 15:04:23;;;;;;;1.57;1.47;;;;;;;;;;5054364;28;20240;-82
2022/10/01 15:06:50;;;;;;;1.77;1.23;;;;;;;;;;5054902;28;20642;-85
2022/10/01 15:09:19;;;;;;;4.60;2.33;;;;;;;;;;5053927;28;20349;-82
2022/10/01 15:11:49;;;;;;;2.80;2.60;;;;;;;;;;5052681;28;20205;-82
2022/10/01 15:14:18;;;;;;;2.40;2.17;;;;;;;;;;5065812;28;20232;-82
2022/10/01 15:16:45;;;;;;;1.63;1.53;;;;;;;;;;5054837;28;20206;-82